Terminal Aerodrome Forecast
Issued by NWS St Louis, MO

Home | Current Version | Previous Version | Text Only | Print | Product List | Glossary On
Versions: 1 2 3 4 5 6 7 8 9 10 11 12 13 14 15 16 17 18 19 20 21 22 23 24 25 26 27 28 29 30
000
FTUS43 KLSX 271558 AAD
TAFSTL
TAF AMD
KSTL 271558Z 2716/2818 12010KT P6SM VCSH SCT009 OVC100
     FM271800 16013G20KT P6SM SCT030
     FM272100 19014G20KT P6SM VCTS OVC040CB
      TEMPO 2721/2724 3SM TSRA OVC025CB
     FM280100 21006KT P6SM SCT110=

USA.gov is the U.S. government's official web portal to all federal, state and local government web resources and services.